sensor_id;sensor_type;location;lat;lon;timestamp;temperature;humidity
28654;DHT22;24320;56.980;24.336;2023-07-28T00:02:10;10.60;99.90
28654;DHT22;24320;56.980;24.336;2023-07-28T00:04:37;10.60;99.90
28654;DHT22;24320;56.980;24.336;2023-07-28T00:07:05;10.60;99.90
28654;DHT22;24320;56.980;24.336;2023-07-28T00:09:32;10.60;99.90
28654;DHT22;24320;56.980;24.336;2023-07-28T00:11:59;10.50;99.90
28654;DHT22;24320;56.980;24.336;2023-07-28T00:14:27;10.50;99.90
28654;DHT22;24320;56.980;24.336;2023-07-28T00:16:56;10.40;99.90
28654;DHT22;24320;56.980;24.336;2023-07-28T00:19:23;10.30;99.90
28654;DHT22;24320;56.980;24.336;2023-07-28T00:21:51;10.30;99.90
28654;DHT22;24320;56.980;24.336;2023-07-28T00:24:18;10.20;99.90
28654;DHT22;24320;56.980;24.336;2023-07-28T00:26:45;10.20;99.90
28654;DHT22;24320;56.980;24.336;2023-07-28T00:29:12;10.20;99.90
28654;DHT22;24320;56.980;24.336;2023-07-28T00:31:39;10.10;99.90
28654;DHT22;24320;56.980;24.336;2023-07-28T00:34:06;10.10;99.90
28654;DHT22;24320;56.980;24.336;2023-07-28T00:36:33;10.10;99.90
28654;DHT22;24320;56.980;24.336;2023-07-28T00:39:01;10.10;99.90
28654;DHT22;24320;56.980;24.336;2023-07-28T00:41:28;10.00;99.90
28654;DHT22;24320;56.980;24.336;2023-07-28T00:43:55;10.00;99.90
28654;DHT22;24320;56.980;24.336;2023-07-28T00:46:22;10.00;99.90
28654;DHT22;24320;56.980;24.336;2023-07-28T00:48:49;9.90;99.90
28654;DHT22;24320;56.980;24.336;2023-07-28T00:51:16;9.90;99.90
28654;DHT22;24320;56.980;24.336;2023-07-28T00:53:44;9.90;99.90
28654;DHT22;24320;56.980;24.336;2023-07-28T00:56:11;9.90;99.90
28654;DHT22;24320;56.980;24.336;2023-07-28T00:58:39;9.90;99.90
28654;DHT22;24320;56.980;24.336;2023-07-28T01:01:06;9.80;99.90
28654;DHT22;24320;56.980;24.336;2023-07-28T01:03:33;9.80;99.90
28654;DHT22;24320;56.980;24.336;2023-07-28T01:06:26;9.70;99.90
28654;DHT22;24320;56.980;24.336;2023-07-28T01:09:04;9.70;99.90
28654;DHT22;24320;56.980;24.336;2023-07-28T01:11:32;9.60;99.90
28654;DHT22;24320;56.980;24.336;2023-07-28T01:13:59;9.60;99.90
28654;DHT22;24320;56.980;24.336;2023-07-28T01:16:26;9.60;99.90
28654;DHT22;24320;56.980;24.336;2023-07-28T01:18:53;9.60;99.90
28654;DHT22;24320;56.980;24.336;2023-07-28T01:21:22;9.60;99.90
28654;DHT22;24320;56.980;24.336;2023-07-28T01:24:23;9.50;99.90
28654;DHT22;24320;56.980;24.336;2023-07-28T01:26:48;9.50;99.90
28654;DHT22;24320;56.980;24.336;2023-07-28T01:29:18;9.50;99.90
28654;DHT22;24320;56.980;24.336;2023-07-28T01:31:47;9.50;99.90
28654;DHT22;24320;56.980;24.336;2023-07-28T01:34:14;9.40;99.90
28654;DHT22;24320;56.980;24.336;2023-07-28T01:36:41;9.50;99.90
28654;DHT22;24320;56.980;24.336;2023-07-28T01:39:08;9.40;99.90
28654;DHT22;24320;56.980;24.336;2023-07-28T01:41:35;9.40;99.90
28654;DHT22;24320;56.980;24.336;2023-07-28T01:44:03;9.40;99.90
28654;DHT22;24320;56.980;24.336;2023-07-28T01:46:30;9.30;99.90
28654;DHT22;24320;56.980;24.336;2023-07-28T01:48:58;9.30;99.90
28654;DHT22;24320;56.980;24.336;2023-07-28T01:51:25;9.30;99.90
28654;DHT22;24320;56.980;24.336;2023-07-28T01:53:52;9.30;99.90
28654;DHT22;24320;56.980;24.336;2023-07-28T01:56:18;9.30;99.90
28654;DHT22;24320;56.980;24.336;2023-07-28T01:58:45;9.30;99.90
28654;DHT22;24320;56.980;24.336;2023-07-28T02:01:13;9.30;99.90
28654;DHT22;24320;56.980;24.336;2023-07-28T02:03:40;9.30;99.90
28654;DHT22;24320;56.980;24.336;2023-07-28T02:06:07;9.30;99.90
28654;DHT22;24320;56.980;24.336;2023-07-28T02:08:34;9.20;99.90
28654;DHT22;24320;56.980;24.336;2023-07-28T02:11:01;9.20;99.90
28654;DHT22;24320;56.980;24.336;2023-07-28T02:13:28;9.20;99.90
28654;DHT22;24320;56.980;24.336;2023-07-28T02:15:55;9.20;99.90
28654;DHT22;24320;56.980;24.336;2023-07-28T02:18:22;9.20;99.90
28654;DHT22;24320;56.980;24.336;2023-07-28T02:20:49;9.20;99.90
28654;DHT22;24320;56.980;24.336;2023-07-28T02:23:16;9.20;99.90
28654;DHT22;24320;56.980;24.336;2023-07-28T02:25:43;9.20;99.90
28654;DHT22;24320;56.980;24.336;2023-07-28T02:28:10;9.20;99.90
28654;DHT22;24320;56.980;24.336;2023-07-28T02:30:38;9.20;99.90
28654;DHT22;24320;56.980;24.336;2023-07-28T02:33:05;9.20;99.90
28654;DHT22;24320;56.980;24.336;2023-07-28T02:35:33;9.30;99.90
28654;DHT22;24320;56.980;24.336;2023-07-28T02:38:00;9.30;99.90
28654;DHT22;24320;56.980;24.336;2023-07-28T02:40:27;9.50;99.90
28654;DHT22;24320;56.980;24.336;2023-07-28T02:42:54;9.60;99.90
28654;DHT22;24320;56.980;24.336;2023-07-28T02:45:21;9.60;99.90
28654;DHT22;24320;56.980;24.336;2023-07-28T02:47:48;9.70;99.90
28654;DHT22;24320;56.980;24.336;2023-07-28T02:50:15;9.70;99.90
28654;DHT22;24320;56.980;24.336;2023-07-28T02:52:42;9.80;99.90
28654;DHT22;24320;56.980;24.336;2023-07-28T02:55:09;9.80;99.90
28654;DHT22;24320;56.980;24.336;2023-07-28T02:57:36;9.90;99.90
28654;DHT22;24320;56.980;24.336;2023-07-28T03:00:04;10.00;99.90
28654;DHT22;24320;56.980;24.336;2023-07-28T03:02:32;10.30;99.90
28654;DHT22;24320;56.980;24.336;2023-07-28T03:04:59;10.60;99.90
28654;DHT22;24320;56.980;24.336;2023-07-28T03:07:26;11.00;99.90
28654;DHT22;24320;56.980;24.336;2023-07-28T03:09:53;11.20;99.90
28654;DHT22;24320;56.980;24.336;2023-07-28T03:12:21;11.40;99.90
28654;DHT22;24320;56.980;24.336;2023-07-28T03:14:48;11.50;99.90
28654;DHT22;24320;56.980;24.336;2023-07-28T03:17:15;11.50;99.90
28654;DHT22;24320;56.980;24.336;2023-07-28T03:19:42;11.60;99.90
28654;DHT22;24320;56.980;24.336;2023-07-28T03:22:09;12.10;99.90
28654;DHT22;24320;56.980;24.336;2023-07-28T03:24:36;12.60;99.90
28654;DHT22;24320;56.980;24.336;2023-07-28T03:27:03;13.00;99.90
28654;DHT22;24320;56.980;24.336;2023-07-28T03:29:30;13.20;99.90
28654;DHT22;24320;56.980;24.336;2023-07-28T03:31:57;13.30;99.90
28654;DHT22;24320;56.980;24.336;2023-07-28T03:34:25;13.30;99.90
28654;DHT22;24320;56.980;24.336;2023-07-28T03:36:53;13.20;99.90
28654;DHT22;24320;56.980;24.336;2023-07-28T03:39:20;13.10;99.90
28654;DHT22;24320;56.980;24.336;2023-07-28T03:41:47;13.00;99.90
28654;DHT22;24320;56.980;24.336;2023-07-28T03:44:15;12.90;99.90
28654;DHT22;24320;56.980;24.336;2023-07-28T03:46:43;12.90;99.90
28654;DHT22;24320;56.980;24.336;2023-07-28T03:49:10;12.90;99.90
28654;DHT22;24320;56.980;24.336;2023-07-28T03:51:37;13.00;99.90
28654;DHT22;24320;56.980;24.336;2023-07-28T03:54:04;13.00;99.90
28654;DHT22;24320;56.980;24.336;2023-07-28T03:56:31;13.00;99.90
28654;DHT22;24320;56.980;24.336;2023-07-28T03:58:58;13.10;99.90
28654;DHT22;24320;56.980;24.336;2023-07-28T04:01:25;13.20;99.90
28654;DHT22;24320;56.980;24.336;2023-07-28T04:03:52;13.30;99.90
28654;DHT22;24320;56.980;24.336;2023-07-28T04:06:42;13.30;99.90
28654;DHT22;24320;56.980;24.336;2023-07-28T04:09:10;13.40;99.90
28654;DHT22;24320;56.980;24.336;2023-07-28T04:11:38;13.40;99.90
28654;DHT22;24320;56.980;24.336;2023-07-28T04:14:05;13.50;99.90
28654;DHT22;24320;56.980;24.336;2023-07-28T04:16:33;13.50;99.90
28654;DHT22;24320;56.980;24.336;2023-07-28T04:19:00;13.60;99.90
28654;DHT22;24320;56.980;24.336;2023-07-28T04:21:27;13.70;99.90
28654;DHT22;24320;56.980;24.336;2023-07-28T04:23:55;13.90;99.90
28654;DHT22;24320;56.980;24.336;2023-07-28T04:26:24;14.00;99.90
28654;DHT22;24320;56.980;24.336;2023-07-28T04:28:51;14.20;99.90
28654;DHT22;24320;56.980;24.336;2023-07-28T04:31:18;14.20;99.90
28654;DHT22;24320;56.980;24.336;2023-07-28T04:33:48;14.20;99.90
28654;DHT22;24320;56.980;24.336;2023-07-28T04:36:15;14.20;99.90
28654;DHT22;24320;56.980;24.336;2023-07-28T04:38:42;14.20;99.90
28654;DHT22;24320;56.980;24.336;2023-07-28T04:41:09;14.10;99.90
28654;DHT22;24320;56.980;24.336;2023-07-28T04:43:36;14.70;99.90
28654;DHT22;24320;56.980;24.336;2023-07-28T04:46:03;15.60;99.90
28654;DHT22;24320;56.980;24.336;2023-07-28T04:48:30;16.60;99.90
28654;DHT22;24320;56.980;24.336;2023-07-28T04:50:57;17.70;99.90
28654;DHT22;24320;56.980;24.336;2023-07-28T04:53:24;18.60;99.90
28654;DHT22;24320;56.980;24.336;2023-07-28T04:55:51;19.40;99.90
28654;DHT22;24320;56.980;24.336;2023-07-28T04:58:18;20.10;99.90
28654;DHT22;24320;56.980;24.336;2023-07-28T05:00:45;20.70;99.90
28654;DHT22;24320;56.980;24.336;2023-07-28T05:03:12;21.30;99.90
28654;DHT22;24320;56.980;24.336;2023-07-28T05:05:43;22.00;99.90
28654;DHT22;24320;56.980;24.336;2023-07-28T05:08:12;22.40;99.90
28654;DHT22;24320;56.980;24.336;2023-07-28T05:10:41;23.00;99.90
28654;DHT22;24320;56.980;24.336;2023-07-28T05:13:09;23.30;99.90
28654;DHT22;24320;56.980;24.336;2023-07-28T05:15:36;23.60;99.90
28654;DHT22;24320;56.980;24.336;2023-07-28T05:18:03;23.90;99.90
28654;DHT22;24320;56.980;24.336;2023-07-28T05:20:30;24.30;99.90
28654;DHT22;24320;56.980;24.336;2023-07-28T05:22:57;24.80;99.90
28654;DHT22;24320;56.980;24.336;2023-07-28T05:25:24;25.00;99.90
28654;DHT22;24320;56.980;24.336;2023-07-28T05:27:51;25.40;99.90
28654;DHT22;24320;56.980;24.336;2023-07-28T05:30:18;25.50;99.90
28654;DHT22;24320;56.980;24.336;2023-07-28T05:32:46;25.70;99.90
28654;DHT22;24320;56.980;24.336;2023-07-28T05:35:15;25.80;99.90
28654;DHT22;24320;56.980;24.336;2023-07-28T05:37:42;25.90;99.30
28654;DHT22;24320;56.980;24.336;2023-07-28T05:40:09;26.20;98.70
28654;DHT22;24320;56.980;24.336;2023-07-28T05:42:36;26.70;96.60
28654;DHT22;24320;56.980;24.336;2023-07-28T05:45:04;26.70;97.20
28654;DHT22;24320;56.980;24.336;2023-07-28T05:47:31;26.50;96.40
28654;DHT22;24320;56.980;24.336;2023-07-28T05:49:58;26.60;97.10
28654;DHT22;24320;56.980;24.336;2023-07-28T05:52:30;26.50;97.40
28654;DHT22;24320;56.980;24.336;2023-07-28T05:54:57;26.60;96.30
28654;DHT22;24320;56.980;24.336;2023-07-28T05:57:24;26.70;96.30
28654;DHT22;24320;56.980;24.336;2023-07-28T05:59:51;26.70;94.60
28654;DHT22;24320;56.980;24.336;2023-07-28T06:02:19;26.60;95.70
28654;DHT22;24320;56.980;24.336;2023-07-28T06:04:46;26.50;95.00
28654;DHT22;24320;56.980;24.336;2023-07-28T06:07:13;26.60;94.90
28654;DHT22;24320;56.980;24.336;2023-07-28T06:09:40;26.80;93.70
28654;DHT22;24320;56.980;24.336;2023-07-28T06:12:07;27.00;94.50
28654;DHT22;24320;56.980;24.336;2023-07-28T06:14:34;27.20;93.60
28654;DHT22;24320;56.980;24.336;2023-07-28T06:17:01;27.20;92.90
28654;DHT22;24320;56.980;24.336;2023-07-28T06:19:28;27.10;93.20
28654;DHT22;24320;56.980;24.336;2023-07-28T06:21:55;27.10;92.60
28654;DHT22;24320;56.980;24.336;2023-07-28T06:24:22;27.20;91.80
28654;DHT22;24320;56.980;24.336;2023-07-28T06:26:49;27.00;91.60
28654;DHT22;24320;56.980;24.336;2023-07-28T06:29:17;26.90;91.80
28654;DHT22;24320;56.980;24.336;2023-07-28T06:31:44;26.70;92.30
28654;DHT22;24320;56.980;24.336;2023-07-28T06:34:11;26.40;93.30
28654;DHT22;24320;56.980;24.336;2023-07-28T06:36:38;26.30;93.90
28654;DHT22;24320;56.980;24.336;2023-07-28T06:39:05;26.20;93.60
28654;DHT22;24320;56.980;24.336;2023-07-28T06:41:32;26.00;92.80
28654;DHT22;24320;56.980;24.336;2023-07-28T06:43:59;26.00;94.20
28654;DHT22;24320;56.980;24.336;2023-07-28T06:46:28;25.90;93.90
28654;DHT22;24320;56.980;24.336;2023-07-28T06:48:55;25.80;92.70
28654;DHT22;24320;56.980;24.336;2023-07-28T06:51:22;25.90;92.50
28654;DHT22;24320;56.980;24.336;2023-07-28T06:53:49;25.80;92.70
28654;DHT22;24320;56.980;24.336;2023-07-28T06:56:17;25.80;93.30
28654;DHT22;24320;56.980;24.336;2023-07-28T06:58:44;25.90;92.10
28654;DHT22;24320;56.980;24.336;2023-07-28T07:01:20;26.00;93.40
28654;DHT22;24320;56.980;24.336;2023-07-28T07:03:48;26.20;92.30
28654;DHT22;24320;56.980;24.336;2023-07-28T07:06:15;26.50;91.80
28654;DHT22;24320;56.980;24.336;2023-07-28T07:08:43;26.60;90.70
28654;DHT22;24320;56.980;24.336;2023-07-28T07:11:10;26.60;91.30
28654;DHT22;24320;56.980;24.336;2023-07-28T07:13:38;26.20;86.00
28654;DHT22;24320;56.980;24.336;2023-07-28T07:16:05;25.60;90.80
28654;DHT22;24320;56.980;24.336;2023-07-28T07:18:33;25.60;91.20
28654;DHT22;24320;56.980;24.336;2023-07-28T07:21:03;25.70;92.40
28654;DHT22;24320;56.980;24.336;2023-07-28T07:23:30;26.20;91.60
28654;DHT22;24320;56.980;24.336;2023-07-28T07:25:57;26.60;90.10
28654;DHT22;24320;56.980;24.336;2023-07-28T07:28:24;26.40;86.90
28654;DHT22;24320;56.980;24.336;2023-07-28T07:30:51;26.10;91.20
28654;DHT22;24320;56.980;24.336;2023-07-28T07:33:18;26.00;91.90
28654;DHT22;24320;56.980;24.336;2023-07-28T07:35:45;26.20;91.20
28654;DHT22;24320;56.980;24.336;2023-07-28T07:38:12;26.50;90.60
28654;DHT22;24320;56.980;24.336;2023-07-28T07:40:40;26.80;90.10
28654;DHT22;24320;56.980;24.336;2023-07-28T07:43:13;27.10;88.60
28654;DHT22;24320;56.980;24.336;2023-07-28T07:45:46;27.30;88.70
28654;DHT22;24320;56.980;24.336;2023-07-28T07:48:14;27.60;90.60
28654;DHT22;24320;56.980;24.336;2023-07-28T07:50:40;27.90;85.50
28654;DHT22;24320;56.980;24.336;2023-07-28T07:53:07;27.70;88.10
28654;DHT22;24320;56.980;24.336;2023-07-28T07:55:34;27.80;88.80
28654;DHT22;24320;56.980;24.336;2023-07-28T07:58:02;27.90;89.30
28654;DHT22;24320;56.980;24.336;2023-07-28T08:00:30;27.90;83.30
28654;DHT22;24320;56.980;24.336;2023-07-28T08:02:57;27.20;81.80
28654;DHT22;24320;56.980;24.336;2023-07-28T08:05:24;26.90;84.30
28654;DHT22;24320;56.980;24.336;2023-07-28T08:07:51;26.60;82.60
28654;DHT22;24320;56.980;24.336;2023-07-28T08:10:18;26.30;86.40
28654;DHT22;24320;56.980;24.336;2023-07-28T08:12:45;25.90;83.20
28654;DHT22;24320;56.980;24.336;2023-07-28T08:15:14;25.90;89.20
28654;DHT22;24320;56.980;24.336;2023-07-28T08:17:41;26.20;89.70
28654;DHT22;24320;56.980;24.336;2023-07-28T08:20:08;26.40;84.90
28654;DHT22;24320;56.980;24.336;2023-07-28T08:22:36;26.30;84.40
28654;DHT22;24320;56.980;24.336;2023-07-28T08:25:04;26.20;86.80
28654;DHT22;24320;56.980;24.336;2023-07-28T08:27:31;26.10;88.20
28654;DHT22;24320;56.980;24.336;2023-07-28T08:29:58;25.70;87.20
28654;DHT22;24320;56.980;24.336;2023-07-28T08:32:25;25.30;86.70
28654;DHT22;24320;56.980;24.336;2023-07-28T08:34:52;24.80;86.10
28654;DHT22;24320;56.980;24.336;2023-07-28T08:37:19;24.40;88.60
28654;DHT22;24320;56.980;24.336;2023-07-28T08:39:46;24.20;89.70
28654;DHT22;24320;56.980;24.336;2023-07-28T08:42:13;23.90;88.10
28654;DHT22;24320;56.980;24.336;2023-07-28T08:44:40;23.60;91.00
28654;DHT22;24320;56.980;24.336;2023-07-28T08:47:08;23.40;91.60
28654;DHT22;24320;56.980;24.336;2023-07-28T08:49:35;23.20;91.10
28654;DHT22;24320;56.980;24.336;2023-07-28T08:52:04;23.20;92.00
28654;DHT22;24320;56.980;24.336;2023-07-28T08:54:31;23.20;92.40
28654;DHT22;24320;56.980;24.336;2023-07-28T08:56:59;23.50;91.60
28654;DHT22;24320;56.980;24.336;2023-07-28T08:59:27;23.70;92.80
28654;DHT22;24320;56.980;24.336;2023-07-28T09:01:56;23.90;92.20
28654;DHT22;24320;56.980;24.336;2023-07-28T09:04:25;24.20;91.20
28654;DHT22;24320;56.980;24.336;2023-07-28T09:06:52;24.50;91.70
28654;DHT22;24320;56.980;24.336;2023-07-28T09:09:21;24.60;90.20
28654;DHT22;24320;56.980;24.336;2023-07-28T09:11:53;24.50;88.60
28654;DHT22;24320;56.980;24.336;2023-07-28T09:14:21;24.40;89.50
28654;DHT22;24320;56.980;24.336;2023-07-28T09:16:50;23.90;90.30
28654;DHT22;24320;56.980;24.336;2023-07-28T09:19:19;23.80;92.40
28654;DHT22;24320;56.980;24.336;2023-07-28T09:21:58;24.00;92.10
28654;DHT22;24320;56.980;24.336;2023-07-28T09:24:33;24.10;91.10
28654;DHT22;24320;56.980;24.336;2023-07-28T09:27:01;24.30;93.80
28654;DHT22;24320;56.980;24.336;2023-07-28T09:29:28;24.50;90.80
28654;DHT22;24320;56.980;24.336;2023-07-28T09:32:06;24.60;93.20
28654;DHT22;24320;56.980;24.336;2023-07-28T09:34:33;24.70;90.90
28654;DHT22;24320;56.980;24.336;2023-07-28T09:37:00;24.60;90.00
28654;DHT22;24320;56.980;24.336;2023-07-28T09:39:28;24.20;90.50
28654;DHT22;24320;56.980;24.336;2023-07-28T09:41:56;23.80;90.40
28654;DHT22;24320;56.980;24.336;2023-07-28T09:44:25;23.70;91.50
28654;DHT22;24320;56.980;24.336;2023-07-28T09:46:56;23.60;91.40
28654;DHT22;24320;56.980;24.336;2023-07-28T09:49:36;23.60;92.40
28654;DHT22;24320;56.980;24.336;2023-07-28T09:52:05;23.60;91.40
28654;DHT22;24320;56.980;24.336;2023-07-28T09:54:41;23.60;94.40
28654;DHT22;24320;56.980;24.336;2023-07-28T09:57:12;23.90;94.00
28654;DHT22;24320;56.980;24.336;2023-07-28T09:59:42;24.30;92.80
28654;DHT22;24320;56.980;24.336;2023-07-28T10:02:09;24.30;90.50
28654;DHT22;24320;56.980;24.336;2023-07-28T10:04:37;24.20;90.50
28654;DHT22;24320;56.980;24.336;2023-07-28T10:07:05;24.10;92.70
28654;DHT22;24320;56.980;24.336;2023-07-28T10:09:34;24.30;93.00
28654;DHT22;24320;56.980;24.336;2023-07-28T10:12:01;24.50;90.00
28654;DHT22;24320;56.980;24.336;2023-07-28T10:14:37;24.30;86.80
28654;DHT22;24320;56.980;24.336;2023-07-28T10:17:05;24.20;89.50
28654;DHT22;24320;56.980;24.336;2023-07-28T10:19:36;24.30;91.30
28654;DHT22;24320;56.980;24.336;2023-07-28T10:22:11;24.60;91.50
28654;DHT22;24320;56.980;24.336;2023-07-28T10:24:55;24.70;88.10
28654;DHT22;24320;56.980;24.336;2023-07-28T10:27:35;24.80;91.00
28654;DHT22;24320;56.980;24.336;2023-07-28T10:30:10;25.00;90.40
28654;DHT22;24320;56.980;24.336;2023-07-28T10:32:43;24.80;91.90
28654;DHT22;24320;56.980;24.336;2023-07-28T10:37:44;24.70;91.20
28654;DHT22;24320;56.980;24.336;2023-07-28T10:40:31;24.60;90.30
28654;DHT22;24320;56.980;24.336;2023-07-28T10:42:59;24.30;91.80
28654;DHT22;24320;56.980;24.336;2023-07-28T10:45:28;24.30;92.90
28654;DHT22;24320;56.980;24.336;2023-07-28T10:47:56;24.30;90.90
28654;DHT22;24320;56.980;24.336;2023-07-28T10:50:28;24.10;90.50
28654;DHT22;24320;56.980;24.336;2023-07-28T10:52:55;23.90;90.00
28654;DHT22;24320;56.980;24.336;2023-07-28T10:55:25;23.50;90.50
28654;DHT22;24320;56.980;24.336;2023-07-28T10:57:53;23.30;90.20
28654;DHT22;24320;56.980;24.336;2023-07-28T11:00:22;23.30;91.60
28654;DHT22;24320;56.980;24.336;2023-07-28T11:02:51;23.50;91.90
28654;DHT22;24320;56.980;24.336;2023-07-28T11:05:29;23.80;91.70
28654;DHT22;24320;56.980;24.336;2023-07-28T11:08:00;24.10;92.50
28654;DHT22;24320;56.980;24.336;2023-07-28T11:10:29;24.20;90.40
28654;DHT22;24320;56.980;24.336;2023-07-28T11:13:01;24.40;89.20
28654;DHT22;24320;56.980;24.336;2023-07-28T11:15:41;24.50;90.00
28654;DHT22;24320;56.980;24.336;2023-07-28T11:18:08;24.60;86.60
28654;DHT22;24320;56.980;24.336;2023-07-28T11:20:36;24.60;86.30
28654;DHT22;24320;56.980;24.336;2023-07-28T11:23:04;24.60;86.80
28654;DHT22;24320;56.980;24.336;2023-07-28T11:25:33;24.50;87.30
28654;DHT22;24320;56.980;24.336;2023-07-28T11:28:02;24.50;87.50
28654;DHT22;24320;56.980;24.336;2023-07-28T11:30:32;24.60;86.60
28654;DHT22;24320;56.980;24.336;2023-07-28T11:33:08;24.70;88.90
28654;DHT22;24320;56.980;24.336;2023-07-28T11:35:36;25.00;90.00
28654;DHT22;24320;56.980;24.336;2023-07-28T11:38:03;25.20;85.60
28654;DHT22;24320;56.980;24.336;2023-07-28T11:40:30;25.20;82.60
28654;DHT22;24320;56.980;24.336;2023-07-28T11:43:01;25.00;83.40
28654;DHT22;24320;56.980;24.336;2023-07-28T11:45:29;25.00;85.00
28654;DHT22;24320;56.980;24.336;2023-07-28T11:47:57;25.10;87.60
28654;DHT22;24320;56.980;24.336;2023-07-28T11:50:29;25.20;85.00
28654;DHT22;24320;56.980;24.336;2023-07-28T11:53:06;25.10;81.60
28654;DHT22;24320;56.980;24.336;2023-07-28T11:55:35;24.80;85.60
28654;DHT22;24320;56.980;24.336;2023-07-28T11:58:07;24.80;88.10
28654;DHT22;24320;56.980;24.336;2023-07-28T12:00:36;24.90;85.20
28654;DHT22;24320;56.980;24.336;2023-07-28T12:03:08;24.90;83.00
28654;DHT22;24320;56.980;24.336;2023-07-28T12:05:58;24.70;82.90
28654;DHT22;24320;56.980;24.336;2023-07-28T12:08:40;24.50;81.00
28654;DHT22;24320;56.980;24.336;2023-07-28T12:11:13;24.20;84.80
28654;DHT22;24320;56.980;24.336;2023-07-28T12:13:50;24.20;86.90
28654;DHT22;24320;56.980;24.336;2023-07-28T12:16:40;24.40;85.20
28654;DHT22;24320;56.980;24.336;2023-07-28T12:19:13;24.60;82.30
28654;DHT22;24320;56.980;24.336;2023-07-28T12:21:41;24.70;82.40
28654;DHT22;24320;56.980;24.336;2023-07-28T12:24:08;24.70;79.40
28654;DHT22;24320;56.980;24.336;2023-07-28T12:26:35;24.50;81.40
28654;DHT22;24320;56.980;24.336;2023-07-28T12:29:05;24.30;81.70
28654;DHT22;24320;56.980;24.336;2023-07-28T12:31:35;24.30;83.00
28654;DHT22;24320;56.980;24.336;2023-07-28T12:34:05;24.10;82.70
28654;DHT22;24320;56.980;24.336;2023-07-28T12:36:32;24.00;83.70
28654;DHT22;24320;56.980;24.336;2023-07-28T12:39:03;24.00;84.10
28654;DHT22;24320;56.980;24.336;2023-07-28T12:41:50;23.90;82.70
28654;DHT22;24320;56.980;24.336;2023-07-28T12:44:20;23.80;85.90
28654;DHT22;24320;56.980;24.336;2023-07-28T12:47:08;23.80;83.80
28654;DHT22;24320;56.980;24.336;2023-07-28T12:49:35;23.80;80.60
28654;DHT22;24320;56.980;24.336;2023-07-28T12:52:05;23.80;85.20
28654;DHT22;24320;56.980;24.336;2023-07-28T12:54:45;23.80;84.80
28654;DHT22;24320;56.980;24.336;2023-07-28T12:57:12;23.80;85.10
28654;DHT22;24320;56.980;24.336;2023-07-28T12:59:39;23.70;86.80
28654;DHT22;24320;56.980;24.336;2023-07-28T13:02:09;23.60;84.80
28654;DHT22;24320;56.980;24.336;2023-07-28T13:04:37;23.70;83.50
28654;DHT22;24320;56.980;24.336;2023-07-28T13:07:04;23.60;85.00
28654;DHT22;24320;56.980;24.336;2023-07-28T13:09:34;23.50;84.90
28654;DHT22;24320;56.980;24.336;2023-07-28T13:12:02;23.40;84.10
28654;DHT22;24320;56.980;24.336;2023-07-28T13:14:34;23.20;84.50
28654;DHT22;24320;56.980;24.336;2023-07-28T13:17:01;23.10;87.30
28654;DHT22;24320;56.980;24.336;2023-07-28T13:19:28;23.10;88.30
28654;DHT22;24320;56.980;24.336;2023-07-28T13:21:55;23.10;88.10
28654;DHT22;24320;56.980;24.336;2023-07-28T13:24:22;23.20;88.70
28654;DHT22;24320;56.980;24.336;2023-07-28T13:26:49;23.20;90.20
28654;DHT22;24320;56.980;24.336;2023-07-28T13:29:15;23.20;90.90
28654;DHT22;24320;56.980;24.336;2023-07-28T13:31:42;22.50;91.50
28654;DHT22;24320;56.980;24.336;2023-07-28T13:34:10;22.50;92.10
28654;DHT22;24320;56.980;24.336;2023-07-28T13:36:37;22.50;93.50
28654;DHT22;24320;56.980;24.336;2023-07-28T13:39:04;22.50;93.50
28654;DHT22;24320;56.980;24.336;2023-07-28T13:41:32;22.60;93.90
28654;DHT22;24320;56.980;24.336;2023-07-28T13:44:00;22.80;95.30
28654;DHT22;24320;56.980;24.336;2023-07-28T13:46:28;22.90;92.50
28654;DHT22;24320;56.980;24.336;2023-07-28T13:48:56;22.90;93.60
28654;DHT22;24320;56.980;24.336;2023-07-28T13:51:33;22.80;93.20
28654;DHT22;24320;56.980;24.336;2023-07-28T13:54:20;22.90;93.00
28654;DHT22;24320;56.980;24.336;2023-07-28T13:56:50;22.90;92.70
28654;DHT22;24320;56.980;24.336;2023-07-28T13:59:20;22.80;93.20
28654;DHT22;24320;56.980;24.336;2023-07-28T14:01:48;22.90;92.50
28654;DHT22;24320;56.980;24.336;2023-07-28T14:04:15;22.90;93.70
28654;DHT22;24320;56.980;24.336;2023-07-28T14:06:42;22.90;93.50
28654;DHT22;24320;56.980;24.336;2023-07-28T14:09:09;23.00;93.50
28654;DHT22;24320;56.980;24.336;2023-07-28T14:11:36;22.90;92.40
28654;DHT22;24320;56.980;24.336;2023-07-28T14:14:04;22.80;94.40
28654;DHT22;24320;56.980;24.336;2023-07-28T14:16:31;22.60;94.70
28654;DHT22;24320;56.980;24.336;2023-07-28T14:18:58;22.50;94.40
28654;DHT22;24320;56.980;24.336;2023-07-28T14:21:25;22.20;95.10
28654;DHT22;24320;56.980;24.336;2023-07-28T14:23:52;21.90;95.60
28654;DHT22;24320;56.980;24.336;2023-07-28T14:26:19;21.60;97.00
28654;DHT22;24320;56.980;24.336;2023-07-28T14:28:46;21.20;97.70
28654;DHT22;24320;56.980;24.336;2023-07-28T14:31:13;20.80;98.80
28654;DHT22;24320;56.980;24.336;2023-07-28T14:33:40;20.60;99.90
28654;DHT22;24320;56.980;24.336;2023-07-28T14:36:08;20.50;99.90
28654;DHT22;24320;56.980;24.336;2023-07-28T14:38:35;20.50;99.90
28654;DHT22;24320;56.980;24.336;2023-07-28T14:41:02;20.60;99.90
28654;DHT22;24320;56.980;24.336;2023-07-28T14:43:29;20.60;99.90
28654;DHT22;24320;56.980;24.336;2023-07-28T14:45:56;20.60;99.90
28654;DHT22;24320;56.980;24.336;2023-07-28T14:48:23;20.60;99.90
28654;DHT22;24320;56.980;24.336;2023-07-28T14:50:50;20.60;99.90
28654;DHT22;24320;56.980;24.336;2023-07-28T14:53:37;20.60;99.90
28654;DHT22;24320;56.980;24.336;2023-07-28T14:56:05;20.60;99.90
28654;DHT22;24320;56.980;24.336;2023-07-28T14:58:33;20.60;99.90
28654;DHT22;24320;56.980;24.336;2023-07-28T15:01:00;20.50;99.90
28654;DHT22;24320;56.980;24.336;2023-07-28T15:03:29;20.50;99.90
28654;DHT22;24320;56.980;24.336;2023-07-28T15:05:58;20.40;99.90
28654;DHT22;24320;56.980;24.336;2023-07-28T15:08:25;20.30;99.90
28654;DHT22;24320;56.980;24.336;2023-07-28T15:10:53;20.30;99.90
28654;DHT22;24320;56.980;24.336;2023-07-28T15:13:20;20.10;99.90
28654;DHT22;24320;56.980;24.336;2023-07-28T15:15:48;20.00;99.90
28654;DHT22;24320;56.980;24.336;2023-07-28T15:18:15;19.90;99.90
28654;DHT22;24320;56.980;24.336;2023-07-28T15:20:43;19.80;99.90
28654;DHT22;24320;56.980;24.336;2023-07-28T15:23:10;19.80;99.90
28654;DHT22;24320;56.980;24.336;2023-07-28T15:25:38;19.80;99.90
28654;DHT22;24320;56.980;24.336;2023-07-28T15:28:14;19.70;99.90
28654;DHT22;24320;56.980;24.336;2023-07-28T15:30:41;19.60;99.90